createdAt,value
2023-08-29T00:00:13.640Z,3.05
2023-08-29T00:02:42.933Z,3.25
2023-08-29T00:05:11.524Z,3.45
2023-08-29T00:07:39.881Z,4.88
2023-08-29T00:10:08.867Z,3.75
2023-08-29T00:12:36.557Z,3.40
2023-08-29T00:15:06.700Z,5.38
2023-08-29T00:17:34.413Z,4.32
2023-08-29T00:20:03.664Z,5.63
2023-08-29T00:22:31.351Z,4.70
2023-08-29T00:24:59.238Z,4.82
2023-08-29T00:27:26.915Z,2.97
2023-08-29T00:29:57.707Z,3.88
2023-08-29T00:32:26.749Z,2.90
2023-08-29T00:34:54.595Z,3.78
2023-08-29T00:37:22.298Z,3.70
2023-08-29T00:39:50.101Z,6.32
2023-08-29T00:42:17.786Z,5.15
2023-08-29T00:44:45.448Z,5.05
2023-08-29T00:47:14.485Z,5.55
2023-08-29T00:49:43.502Z,3.97
2023-08-29T00:52:11.271Z,3.40
2023-08-29T00:54:39.200Z,5.70
2023-08-29T00:57:07.280Z,4.25
2023-08-29T00:59:35.418Z,3.45
2023-08-29T01:02:05.139Z,3.40
2023-08-29T01:04:33.031Z,6.68
2023-08-29T01:07:02.043Z,4.60
2023-08-29T01:09:29.834Z,6.35
2023-08-29T01:12:10.779Z,3.78
2023-08-29T01:14:43.138Z,4.15
2023-08-29T01:17:14.742Z,4.38
2023-08-29T01:19:44.602Z,6.53
2023-08-29T01:22:27.897Z,3.88
2023-08-29T01:25:00.845Z,4.65
2023-08-29T01:27:31.681Z,5.53
2023-08-29T01:30:01.525Z,5.47
2023-08-29T01:32:29.474Z,6.15
2023-08-29T01:34:57.739Z,4.93
2023-08-29T01:37:25.599Z,3.85
2023-08-29T01:39:53.363Z,3.20
2023-08-29T01:42:21.091Z,5.28
2023-08-29T01:44:50.171Z,8.00
2023-08-29T01:47:17.892Z,5.65
2023-08-29T01:49:46.381Z,6.20
2023-08-29T01:52:14.329Z,4.47
2023-08-29T01:54:42.085Z,4.47
2023-08-29T01:57:12.458Z,4.40
2023-08-29T01:59:40.793Z,6.68
2023-08-29T02:02:10.605Z,3.40
2023-08-29T02:04:38.592Z,4.60
2023-08-29T02:07:06.930Z,5.43
2023-08-29T02:09:34.619Z,4.43
2023-08-29T02:12:03.775Z,6.75
2023-08-29T02:14:31.527Z,4.50
2023-08-29T02:16:59.537Z,5.07
2023-08-29T02:19:30.072Z,4.47
2023-08-29T02:21:58.106Z,5.47
2023-08-29T02:24:26.002Z,4.88
2023-08-29T02:26:54.070Z,6.05
2023-08-29T02:29:21.924Z,5.53
2023-08-29T02:31:49.797Z,8.23
2023-08-29T02:34:19.117Z,8.80
2023-08-29T02:36:48.259Z,7.82
2023-08-29T02:39:15.943Z,6.57
2023-08-29T02:41:43.614Z,5.50
2023-08-29T02:44:11.268Z,7.28
2023-08-29T02:46:39.950Z,8.00
2023-08-29T02:49:07.982Z,7.18
2023-08-29T02:51:35.730Z,8.18
2023-08-29T02:54:05.263Z,8.98
2023-08-29T02:56:33.014Z,6.05
2023-08-29T02:59:02.062Z,8.80
2023-08-29T03:01:29.906Z,9.85
2023-08-29T03:03:57.659Z,9.63
2023-08-29T03:06:25.674Z,8.63
2023-08-29T03:08:53.413Z,7.32
2023-08-29T03:11:22.431Z,9.70
2023-08-29T03:13:50.140Z,7.70
2023-08-29T03:16:20.555Z,9.57
2023-08-29T03:18:48.584Z,11.68
2023-08-29T03:21:16.278Z,8.07
2023-08-29T03:23:44.274Z,8.32
2023-08-29T03:26:12.402Z,8.00
2023-08-29T03:28:44.787Z,7.63
2023-08-29T03:31:13.238Z,9.32
2023-08-29T03:33:41.209Z,7.55
2023-08-29T03:36:09.767Z,7.60
2023-08-29T03:38:38.666Z,8.10
2023-08-29T03:41:07.116Z,9.20
2023-08-29T03:43:36.200Z,9.10
2023-08-29T03:46:06.722Z,9.93
2023-08-29T03:48:35.432Z,7.60
2023-08-29T03:51:07.131Z,7.10
2023-08-29T03:53:35.399Z,10.00
2023-08-29T03:56:03.613Z,8.35
2023-08-29T03:58:32.050Z,8.95
2023-08-29T04:01:00.376Z,8.32
2023-08-29T04:03:29.727Z,8.95
2023-08-29T04:05:57.639Z,10.75
2023-08-29T04:08:25.302Z,9.95
2023-08-29T04:10:53.535Z,9.55
2023-08-29T04:13:21.316Z,8.38
2023-08-29T04:15:50.297Z,8.82
2023-08-29T04:18:18.736Z,8.57
2023-08-29T04:20:47.795Z,10.73
2023-08-29T04:23:15.973Z,8.07
2023-08-29T04:25:43.662Z,8.65
2023-08-29T04:28:11.290Z,11.52
2023-08-29T04:30:38.975Z,9.23
2023-08-29T04:33:07.999Z,6.38
2023-08-29T04:35:35.747Z,9.27
2023-08-29T04:38:05.296Z,11.43
2023-08-29T04:40:33.241Z,11.80
2023-08-29T04:43:01.073Z,9.63
2023-08-29T04:45:28.973Z,10.18
2023-08-29T04:47:56.752Z,12.57
2023-08-29T04:50:26.589Z,11.02
2023-08-29T04:52:54.973Z,11.45
2023-08-29T04:55:24.200Z,11.27
2023-08-29T04:57:53.002Z,8.93
2023-08-29T05:00:21.296Z,7.65
2023-08-29T05:02:49.102Z,10.18
2023-08-29T05:05:17.063Z,8.93
2023-08-29T05:07:46.202Z,10.82
2023-08-29T05:10:13.883Z,8.60
2023-08-29T05:12:43.224Z,9.98
2023-08-29T05:15:11.669Z,8.45
2023-08-29T05:17:39.488Z,8.90
2023-08-29T05:20:10.831Z,7.43
2023-08-29T05:22:38.905Z,9.35
2023-08-29T05:25:07.790Z,12.57
2023-08-29T05:27:35.917Z,9.10
2023-08-29T05:30:06.270Z,9.07
2023-08-29T05:32:34.196Z,8.85
2023-08-29T05:35:01.945Z,10.15
2023-08-29T05:37:29.589Z,8.43
2023-08-29T05:39:57.308Z,8.80
2023-08-29T05:42:24.958Z,10.48
2023-08-29T05:44:52.843Z,7.97
2023-08-29T05:47:22.144Z,9.43
2023-08-29T05:49:49.778Z,10.85
2023-08-29T05:52:17.441Z,10.77
2023-08-29T05:54:45.178Z,8.77
2023-08-29T05:57:12.831Z,10.38
2023-08-29T05:59:40.672Z,10.00
2023-08-29T06:02:08.326Z,8.00
2023-08-29T06:04:38.648Z,9.55
2023-08-29T06:07:07.126Z,8.15
2023-08-29T06:09:34.845Z,7.85
2023-08-29T06:12:02.577Z,10.25
2023-08-29T06:14:30.287Z,6.55
2023-08-29T06:16:58.144Z,8.82
2023-08-29T06:19:26.787Z,6.80
2023-08-29T06:21:55.886Z,8.93
2023-08-29T06:24:23.651Z,9.02
2023-08-29T06:26:51.465Z,9.48
2023-08-29T06:29:19.103Z,8.10
2023-08-29T06:31:46.767Z,8.13
2023-08-29T06:34:14.573Z,8.48
2023-08-29T06:36:42.789Z,8.68
2023-08-29T06:39:11.814Z,8.48
2023-08-29T06:41:39.460Z,7.35
2023-08-29T06:44:08.282Z,6.20
2023-08-29T06:46:36.143Z,10.45
2023-08-29T06:49:05.735Z,8.30
2023-08-29T06:51:33.555Z,5.70
2023-08-29T06:54:01.413Z,7.28
2023-08-29T06:56:30.720Z,6.45
2023-08-29T06:58:59.896Z,7.07
2023-08-29T07:01:27.820Z,5.22
2023-08-29T07:03:55.498Z,6.40
2023-08-29T07:06:23.328Z,6.05
2023-08-29T07:08:51.024Z,7.47
2023-08-29T07:11:19.029Z,7.13
2023-08-29T07:13:48.451Z,7.25
2023-08-29T07:16:16.140Z,5.13
2023-08-29T07:18:43.787Z,5.70
2023-08-29T07:21:11.939Z,4.72
2023-08-29T07:23:39.571Z,7.82
2023-08-29T07:26:07.255Z,4.80
2023-08-29T07:28:34.925Z,6.72
2023-08-29T07:31:03.999Z,6.82
2023-08-29T07:33:31.903Z,9.30
2023-08-29T07:35:59.803Z,6.78
2023-08-29T07:38:27.495Z,6.10
2023-08-29T07:40:55.233Z,6.20
2023-08-29T07:43:23.536Z,5.40
2023-08-29T07:45:54.097Z,5.13
2023-08-29T07:48:23.217Z,6.30
2023-08-29T07:50:50.934Z,6.88
2023-08-29T07:53:18.623Z,7.82
2023-08-29T07:55:46.755Z,5.65
2023-08-29T07:58:14.579Z,7.60
2023-08-29T08:00:42.272Z,5.28
2023-08-29T08:03:09.926Z,5.53
2023-08-29T08:05:39.030Z,4.70
2023-08-29T08:08:07.451Z,5.30
2023-08-29T08:10:35.439Z,4.13
2023-08-29T08:13:04.892Z,7.13
2023-08-29T08:15:32.567Z,4.70
2023-08-29T08:18:00.288Z,5.38
2023-08-29T08:20:28.021Z,5.47
2023-08-29T08:22:57.033Z,6.03
2023-08-29T08:25:24.851Z,4.13
2023-08-29T08:27:52.494Z,6.22
2023-08-29T08:30:20.422Z,5.07
2023-08-29T08:32:48.077Z,3.97
2023-08-29T08:35:15.802Z,4.85
2023-08-29T08:37:43.464Z,6.22
2023-08-29T08:40:16.541Z,3.85
2023-08-29T08:42:45.644Z,4.18
2023-08-29T08:45:13.516Z,3.67
2023-08-29T08:47:42.407Z,2.67
2023-08-29T08:50:11.499Z,2.78
2023-08-29T08:52:41.725Z,4.65
2023-08-29T08:55:10.399Z,4.03
2023-08-29T08:57:39.743Z,3.33
2023-08-29T09:00:08.858Z,1.90
2023-08-29T09:02:38.536Z,4.00
2023-08-29T09:05:09.021Z,2.60
2023-08-29T09:07:39.553Z,1.60
2023-08-29T09:10:09.131Z,2.47
2023-08-29T09:12:37.066Z,2.13
2023-08-29T09:15:07.227Z,2.53
2023-08-29T09:17:35.022Z,3.38
2023-08-29T09:20:06.243Z,2.58
2023-08-29T09:22:34.733Z,2.70
2023-08-29T09:25:04.677Z,3.35
2023-08-29T09:27:41.475Z,4.10
2023-08-29T09:30:12.985Z,2.35
2023-08-29T09:32:43.731Z,2.40
2023-08-29T09:35:14.112Z,3.47
2023-08-29T09:37:43.529Z,2.10
2023-08-29T09:40:26.998Z,2.28
2023-08-29T09:43:01.805Z,3.03
2023-08-29T09:45:32.896Z,4.35
2023-08-29T09:48:03.517Z,3.60
2023-08-29T09:50:32.265Z,2.65
2023-08-29T09:53:01.689Z,4.15
2023-08-29T09:55:33.778Z,2.33
2023-08-29T09:58:06.173Z,2.75
2023-08-29T10:00:36.881Z,1.70
2023-08-29T10:03:09.200Z,2.38
2023-08-29T10:05:38.367Z,2.03
2023-08-29T10:08:14.110Z,2.08
2023-08-29T10:10:43.667Z,2.08
2023-08-29T10:13:12.810Z,2.15
2023-08-29T10:15:43.536Z,1.25
2023-08-29T10:18:13.016Z,1.80
2023-08-29T10:20:45.105Z,1.67
2023-08-29T10:23:14.660Z,2.90
2023-08-29T10:25:43.053Z,3.47
2023-08-29T10:28:12.913Z,2.97
2023-08-29T10:30:48.199Z,2.28
2023-08-29T10:33:16.421Z,1.73
2023-08-29T10:35:44.415Z,1.58
2023-08-29T10:38:16.261Z,2.60
2023-08-29T10:40:45.186Z,1.58
2023-08-29T10:43:20.348Z,1.77
2023-08-29T10:45:58.072Z,3.58
2023-08-29T10:48:50.213Z,2.25
2023-08-29T10:51:23.543Z,2.10
2023-08-29T10:53:52.480Z,1.17
2023-08-29T10:56:21.916Z,1.10
2023-08-29T10:58:49.781Z,1.73
2023-08-29T11:01:34.592Z,2.45
2023-08-29T11:04:04.855Z,1.50
2023-08-29T11:06:54.619Z,1.95
2023-08-29T11:09:23.886Z,2.28
2023-08-29T11:12:08.509Z,1.40
2023-08-29T11:14:52.853Z,1.50
2023-08-29T11:17:25.171Z,1.75
2023-08-29T11:19:54.651Z,1.40
2023-08-29T11:22:26.719Z,3.28
2023-08-29T11:24:56.599Z,1.48
2023-08-29T11:27:24.713Z,2.30
2023-08-29T11:30:05.960Z,1.67
2023-08-29T11:32:42.693Z,2.88
2023-08-29T11:35:13.204Z,2.38
2023-08-29T11:37:40.986Z,1.98
2023-08-29T11:40:11.408Z,4.85
2023-08-29T11:43:09.786Z,0.90
2023-08-29T11:45:49.012Z,1.92
2023-08-29T11:48:24.843Z,2.28
2023-08-29T11:50:56.339Z,1.27
2023-08-29T11:53:25.242Z,1.55
2023-08-29T11:55:53.331Z,0.90
2023-08-29T11:58:21.204Z,5.45
2023-08-29T12:00:51.606Z,1.30
2023-08-29T12:03:26.177Z,2.15
2023-08-29T12:05:58.023Z,2.08
2023-08-29T12:08:36.337Z,1.30
2023-08-29T12:11:04.556Z,1.98
2023-08-29T12:13:32.424Z,1.27
2023-08-29T12:16:00.427Z,1.10
2023-08-29T12:18:29.892Z,1.65
2023-08-29T12:21:12.548Z,2.05
2023-08-29T12:23:40.233Z,0.93
2023-08-29T12:26:07.867Z,3.28
2023-08-29T12:28:35.561Z,1.10
2023-08-29T12:31:03.283Z,0.90
2023-08-29T12:33:32.352Z,1.75
2023-08-29T12:36:00.163Z,1.55
2023-08-29T12:38:28.863Z,1.42
2023-08-29T12:40:56.631Z,1.13
2023-08-29T12:43:25.093Z,1.00
2023-08-29T12:46:00.060Z,0.88
2023-08-29T12:48:28.632Z,1.42
2023-08-29T12:50:57.647Z,1.83
2023-08-29T12:53:25.357Z,1.75
2023-08-29T12:55:53.307Z,1.10
2023-08-29T12:58:21.184Z,1.35
2023-08-29T13:00:49.004Z,1.33
2023-08-29T13:03:16.809Z,1.58
2023-08-29T13:05:44.839Z,2.08
2023-08-29T13:08:16.511Z,2.05
2023-08-29T13:10:44.250Z,0.93
2023-08-29T13:13:12.427Z,1.13
2023-08-29T13:15:50.357Z,1.63
2023-08-29T13:18:19.796Z,1.58
2023-08-29T13:20:47.514Z,1.02
2023-08-29T13:23:16.720Z,1.98
2023-08-29T13:25:44.643Z,1.08
2023-08-29T13:28:12.335Z,0.90
2023-08-29T13:30:40.011Z,3.80
2023-08-29T13:33:09.092Z,1.35
2023-08-29T13:35:36.914Z,1.27
2023-08-29T13:38:05.888Z,0.80
2023-08-29T13:40:35.903Z,1.10
2023-08-29T13:43:03.728Z,2.53
2023-08-29T13:45:31.848Z,1.02
2023-08-29T13:47:59.732Z,1.05
2023-08-29T13:50:27.456Z,1.00
2023-08-29T13:52:56.993Z,2.45
2023-08-29T13:55:24.698Z,1.35
2023-08-29T13:57:53.949Z,1.58
2023-08-29T14:00:22.333Z,1.02
2023-08-29T14:02:51.401Z,1.55
2023-08-29T14:05:19.381Z,1.48
2023-08-29T14:07:47.102Z,2.22
2023-08-29T14:10:14.790Z,1.17
2023-08-29T14:12:42.620Z,1.00
2023-08-29T14:15:11.906Z,1.75
2023-08-29T14:17:39.740Z,1.42
2023-08-29T14:20:08.785Z,0.98
2023-08-29T14:22:36.501Z,1.40
2023-08-29T14:25:04.288Z,1.70
2023-08-29T14:27:32.080Z,1.70
2023-08-29T14:29:59.807Z,2.13
2023-08-29T14:32:28.976Z,1.13
2023-08-29T14:34:56.626Z,2.55
2023-08-29T14:37:24.346Z,1.40
2023-08-29T14:39:52.020Z,2.15
2023-08-29T14:42:19.685Z,3.35
2023-08-29T14:44:47.585Z,1.55
2023-08-29T14:47:15.303Z,2.95
2023-08-29T14:49:44.302Z,1.20
2023-08-29T14:52:11.991Z,1.25
2023-08-29T14:54:39.613Z,1.50
2023-08-29T14:57:08.473Z,1.67
2023-08-29T14:59:36.498Z,1.63
2023-08-29T15:02:05.374Z,2.15
2023-08-29T15:04:33.169Z,1.40
2023-08-29T15:07:03.505Z,2.45
2023-08-29T15:09:31.274Z,3.17
2023-08-29T15:11:58.984Z,1.73
2023-08-29T15:14:26.786Z,1.00
2023-08-29T15:16:54.569Z,2.38
2023-08-29T15:19:22.282Z,2.17
2023-08-29T15:21:50.358Z,1.20
2023-08-29T15:24:19.787Z,1.20
2023-08-29T15:26:48.832Z,0.82
2023-08-29T15:29:18.249Z,1.10
2023-08-29T15:31:45.972Z,1.20
2023-08-29T15:34:13.731Z,1.10
2023-08-29T15:36:41.511Z,1.55
2023-08-29T15:39:09.181Z,3.42
2023-08-29T15:41:38.460Z,0.90
2023-08-29T15:44:06.407Z,2.05
2023-08-29T15:46:34.170Z,2.15
2023-08-29T15:49:01.981Z,1.15
2023-08-29T15:51:29.640Z,2.20
2023-08-29T15:53:57.329Z,1.00
2023-08-29T15:56:25.086Z,2.75
2023-08-29T15:58:54.090Z,2.38
2023-08-29T16:01:22.374Z,3.20
2023-08-29T16:03:51.547Z,2.40
2023-08-29T16:06:19.400Z,1.67
2023-08-29T16:08:47.069Z,1.30
2023-08-29T16:11:14.698Z,3.50
2023-08-29T16:13:42.380Z,1.55
2023-08-29T16:16:11.573Z,1.67
2023-08-29T16:18:39.362Z,2.28
2023-08-29T16:21:07.111Z,1.55
2023-08-29T16:23:34.908Z,1.83
2023-08-29T16:26:06.886Z,3.72
2023-08-29T16:28:35.149Z,4.43
2023-08-29T16:31:02.842Z,2.40
2023-08-29T16:33:32.054Z,1.95
2023-08-29T16:35:59.846Z,2.42
2023-08-29T16:38:27.530Z,3.67
2023-08-29T16:40:55.234Z,4.03
2023-08-29T16:43:22.993Z,3.03
2023-08-29T16:45:51.497Z,2.33
2023-08-29T16:48:19.581Z,2.45
2023-08-29T16:50:51.933Z,2.83
2023-08-29T16:53:22.476Z,2.25
2023-08-29T16:55:51.053Z,2.33
2023-08-29T16:58:18.928Z,2.72
2023-08-29T17:00:47.014Z,2.83
2023-08-29T17:03:15.073Z,1.80
2023-08-29T17:05:43.227Z,2.75
2023-08-29T17:08:13.974Z,2.78
2023-08-29T17:10:41.966Z,3.85
2023-08-29T17:13:10.542Z,2.95
2023-08-29T17:15:38.283Z,2.60
2023-08-29T17:18:06.695Z,2.47
2023-08-29T17:20:34.686Z,3.90
2023-08-29T17:23:02.471Z,3.33
2023-08-29T17:25:32.428Z,2.72
2023-08-29T17:28:00.327Z,4.72
2023-08-29T17:30:28.389Z,3.38
2023-08-29T17:32:56.235Z,2.75
2023-08-29T17:35:23.997Z,4.15
2023-08-29T17:37:51.698Z,3.80
2023-08-29T17:40:19.815Z,3.25
2023-08-29T17:42:48.917Z,3.15
2023-08-29T17:45:17.088Z,2.33
2023-08-29T17:47:44.956Z,2.47
2023-08-29T17:50:13.702Z,2.97
2023-08-29T17:52:41.467Z,2.42
2023-08-29T17:55:09.539Z,2.60
2023-08-29T17:57:37.258Z,3.30
2023-08-29T18:00:07.658Z,2.00
2023-08-29T18:02:35.480Z,3.58
2023-08-29T18:05:03.257Z,3.72
2023-08-29T18:07:31.259Z,2.97
2023-08-29T18:10:10.555Z,2.50
2023-08-29T18:12:39.384Z,3.95
2023-08-29T18:15:10.248Z,2.33
2023-08-29T18:17:38.622Z,2.42
2023-08-29T18:20:07.903Z,2.63
2023-08-29T18:22:36.124Z,3.85
2023-08-29T18:25:03.932Z,2.20
2023-08-29T18:27:31.754Z,2.95
2023-08-29T18:29:59.507Z,2.70
2023-08-29T18:32:32.481Z,3.25
2023-08-29T18:35:00.429Z,3.78
2023-08-29T18:37:28.282Z,2.38
2023-08-29T18:39:57.320Z,2.53
2023-08-29T18:42:25.023Z,2.47
2023-08-29T18:44:53.314Z,1.98
2023-08-29T18:47:21.055Z,2.42
2023-08-29T18:49:50.358Z,2.42
2023-08-29T18:52:18.117Z,2.05
2023-08-29T18:54:45.844Z,1.85
2023-08-29T18:57:13.725Z,2.45
2023-08-29T18:59:41.564Z,2.42
2023-08-29T19:02:09.267Z,1.70
2023-08-29T19:04:37.169Z,3.15
2023-08-29T19:07:06.437Z,1.80
2023-08-29T19:09:34.170Z,2.30
2023-08-29T19:12:01.979Z,2.20
2023-08-29T19:14:29.638Z,2.30
2023-08-29T19:16:57.274Z,2.90
2023-08-29T19:19:24.993Z,1.80
2023-08-29T19:21:56.198Z,2.00
2023-08-29T19:24:25.338Z,2.20
2023-08-29T19:26:53.025Z,2.15
2023-08-29T19:29:21.052Z,1.90
2023-08-29T19:31:48.691Z,3.35
2023-08-29T19:34:16.914Z,2.88
2023-08-29T19:36:45.539Z,2.17
2023-08-29T19:39:17.636Z,4.80
2023-08-29T19:41:46.956Z,3.17
2023-08-29T19:44:17.127Z,2.75
2023-08-29T19:46:45.583Z,3.88
2023-08-29T19:49:13.434Z,2.70
2023-08-29T19:51:41.283Z,3.17
2023-08-29T19:54:08.942Z,2.75
2023-08-29T19:56:36.667Z,4.28
2023-08-29T19:59:06.843Z,3.88
2023-08-29T20:01:34.709Z,2.65
2023-08-29T20:04:02.480Z,3.33
2023-08-29T20:06:30.209Z,4.15
2023-08-29T20:08:58.198Z,3.67
2023-08-29T20:11:25.953Z,3.85
2023-08-29T20:13:53.631Z,3.10
2023-08-29T20:16:22.685Z,3.72
2023-08-29T20:18:50.407Z,3.65
2023-08-29T20:21:18.141Z,4.05
2023-08-29T20:24:00.937Z,3.97
2023-08-29T20:26:30.543Z,4.05
2023-08-29T20:29:00.193Z,2.42
2023-08-29T20:31:29.604Z,2.78
2023-08-29T20:33:57.388Z,4.57
2023-08-29T20:36:25.623Z,3.83
2023-08-29T20:38:53.350Z,2.75
2023-08-29T20:41:21.180Z,3.78
2023-08-29T20:43:48.957Z,3.03
2023-08-29T20:46:16.784Z,2.30
2023-08-29T20:48:50.543Z,2.58
2023-08-29T20:51:18.882Z,2.75
2023-08-29T20:53:47.210Z,4.20
2023-08-29T20:56:14.971Z,4.38
2023-08-29T20:58:42.654Z,3.15
2023-08-29T21:01:10.480Z,2.28
2023-08-29T21:03:38.191Z,2.35
2023-08-29T21:06:07.506Z,3.03
2023-08-29T21:08:35.236Z,4.25
2023-08-29T21:11:05.397Z,2.90
2023-08-29T21:13:33.065Z,3.30
2023-08-29T21:16:00.863Z,3.50
2023-08-29T21:18:28.826Z,2.67
2023-08-29T21:20:57.551Z,2.92
2023-08-29T21:23:26.948Z,4.60
2023-08-29T21:25:55.241Z,3.00
2023-08-29T21:28:24.592Z,4.05
2023-08-29T21:30:54.050Z,4.43
2023-08-29T21:33:22.904Z,3.67
2023-08-29T21:35:51.645Z,5.93
2023-08-29T21:38:19.955Z,4.82
2023-08-29T21:40:49.148Z,5.10
2023-08-29T21:43:19.531Z,5.00
2023-08-29T21:45:54.250Z,9.15
2023-08-29T21:48:23.189Z,6.65
2023-08-29T21:50:52.684Z,7.35
2023-08-29T21:53:20.441Z,6.35
2023-08-29T21:55:49.654Z,7.28
2023-08-29T21:58:17.646Z,7.15
2023-08-29T22:00:49.285Z,7.47
2023-08-29T22:03:17.066Z,7.28
2023-08-29T22:05:45.201Z,7.80
2023-08-29T22:08:13.097Z,5.85
2023-08-29T22:10:40.887Z,6.75
2023-08-29T22:13:11.015Z,11.00
2023-08-29T22:15:39.221Z,6.47
2023-08-29T22:18:08.591Z,6.78
2023-08-29T22:20:36.590Z,6.68
2023-08-29T22:23:04.680Z,6.22
2023-08-29T22:25:32.446Z,5.55
2023-08-29T22:28:00.172Z,7.25
2023-08-29T22:30:29.281Z,7.75
2023-08-29T22:32:57.187Z,7.63
2023-08-29T22:35:24.910Z,9.20
2023-08-29T22:37:52.912Z,7.38
2023-08-29T22:40:20.649Z,7.03
2023-08-29T22:42:48.375Z,10.60
2023-08-29T22:45:16.158Z,10.05
2023-08-29T22:47:45.271Z,10.63
2023-08-29T22:50:13.022Z,10.88
2023-08-29T22:52:40.816Z,10.38
2023-08-29T22:55:10.153Z,11.00
2023-08-29T22:57:37.880Z,10.85
2023-08-29T23:00:09.435Z,10.77
2023-08-29T23:02:37.240Z,9.25
2023-08-29T23:05:08.033Z,7.72
2023-08-29T23:07:35.894Z,6.78
2023-08-29T23:10:04.889Z,7.70
2023-08-29T23:12:32.615Z,11.45
2023-08-29T23:15:00.353Z,9.95
2023-08-29T23:17:28.029Z,8.30
2023-08-29T23:19:55.976Z,7.88
2023-08-29T23:22:24.980Z,11.50
2023-08-29T23:24:52.652Z,12.52
2023-08-29T23:27:21.098Z,12.18
2023-08-29T23:29:48.955Z,10.82
2023-08-29T23:32:18.291Z,11.20
2023-08-29T23:34:46.385Z,10.80
2023-08-29T23:37:14.073Z,9.68
2023-08-29T23:39:43.348Z,14.32
2023-08-29T23:42:11.772Z,13.57
2023-08-29T23:44:39.478Z,16.65
2023-08-29T23:47:07.731Z,12.10
2023-08-29T23:49:35.393Z,14.35
2023-08-29T23:52:03.136Z,12.20
2023-08-29T23:54:30.804Z,15.95
2023-08-29T23:56:59.960Z,15.18
2023-08-29T23:59:28.634Z,18.67
